sensor_id;sensor_type;location;lat;lon;timestamp;temperature;humidity
1578;DHT22;57623;53.608;10.004;2024-03-25T00:00:24;6.90;99.90
1578;DHT22;57623;53.608;10.004;2024-03-25T00:02:51;6.90;99.90
1578;DHT22;57623;53.608;10.004;2024-03-25T00:05:18;6.90;99.90
1578;DHT22;57623;53.608;10.004;2024-03-25T00:07:48;6.90;99.90
1578;DHT22;57623;53.608;10.004;2024-03-25T00:10:17;6.90;99.90
1578;DHT22;57623;53.608;10.004;2024-03-25T00:12:46;6.90;99.90
1578;DHT22;57623;53.608;10.004;2024-03-25T00:15:13;6.90;99.90
1578;DHT22;57623;53.608;10.004;2024-03-25T00:17:39;6.90;99.90
1578;DHT22;57623;53.608;10.004;2024-03-25T00:20:08;6.90;99.90
1578;DHT22;57623;53.608;10.004;2024-03-25T00:22:35;6.90;99.90
1578;DHT22;57623;53.608;10.004;2024-03-25T00:25:02;6.90;99.90
1578;DHT22;57623;53.608;10.004;2024-03-25T00:27:30;6.90;99.90
1578;DHT22;57623;53.608;10.004;2024-03-25T00:29:57;6.90;99.90
1578;DHT22;57623;53.608;10.004;2024-03-25T00:32:23;6.90;99.90
1578;DHT22;57623;53.608;10.004;2024-03-25T00:34:50;6.90;99.90
1578;DHT22;57623;53.608;10.004;2024-03-25T00:37:16;6.90;99.90
1578;DHT22;57623;53.608;10.004;2024-03-25T00:39:43;6.90;99.90
1578;DHT22;57623;53.608;10.004;2024-03-25T00:42:09;6.80;99.90
1578;DHT22;57623;53.608;10.004;2024-03-25T00:44:38;6.80;99.90
1578;DHT22;57623;53.608;10.004;2024-03-25T00:47:04;6.90;99.90
1578;DHT22;57623;53.608;10.004;2024-03-25T00:49:31;6.90;99.90
1578;DHT22;57623;53.608;10.004;2024-03-25T00:51:57;6.90;99.90
1578;DHT22;57623;53.608;10.004;2024-03-25T00:54:24;6.90;99.90
1578;DHT22;57623;53.608;10.004;2024-03-25T00:56:50;6.90;99.90
1578;DHT22;57623;53.608;10.004;2024-03-25T00:59:19;7.00;99.90
1578;DHT22;57623;53.608;10.004;2024-03-25T01:01:46;6.90;99.90
1578;DHT22;57623;53.608;10.004;2024-03-25T01:04:13;6.80;99.90
1578;DHT22;57623;53.608;10.004;2024-03-25T01:06:39;6.80;99.90
1578;DHT22;57623;53.608;10.004;2024-03-25T01:09:06;6.80;99.90
1578;DHT22;57623;53.608;10.004;2024-03-25T01:11:33;6.80;99.90
1578;DHT22;57623;53.608;10.004;2024-03-25T01:14:00;6.80;99.90
1578;DHT22;57623;53.608;10.004;2024-03-25T01:16:26;6.80;99.90
1578;DHT22;57623;53.608;10.004;2024-03-25T01:18:55;6.80;99.90
1578;DHT22;57623;53.608;10.004;2024-03-25T01:21:21;6.80;99.90
1578;DHT22;57623;53.608;10.004;2024-03-25T01:23:48;6.80;99.90
1578;DHT22;57623;53.608;10.004;2024-03-25T01:26:14;6.80;99.90
1578;DHT22;57623;53.608;10.004;2024-03-25T01:28:41;6.70;99.90
1578;DHT22;57623;53.608;10.004;2024-03-25T01:31:07;6.70;99.90
1578;DHT22;57623;53.608;10.004;2024-03-25T01:33:34;6.70;99.90
1578;DHT22;57623;53.608;10.004;2024-03-25T01:36:02;6.80;99.90
1578;DHT22;57623;53.608;10.004;2024-03-25T01:38:29;6.70;99.90
1578;DHT22;57623;53.608;10.004;2024-03-25T01:40:55;6.70;99.90
1578;DHT22;57623;53.608;10.004;2024-03-25T01:43:23;6.70;99.90
1578;DHT22;57623;53.608;10.004;2024-03-25T01:45:50;6.70;99.90
1578;DHT22;57623;53.608;10.004;2024-03-25T01:48:18;6.70;99.90
1578;DHT22;57623;53.608;10.004;2024-03-25T01:50:44;6.70;99.90
1578;DHT22;57623;53.608;10.004;2024-03-25T01:53:14;6.70;99.90
1578;DHT22;57623;53.608;10.004;2024-03-25T01:55:40;6.60;99.90
1578;DHT22;57623;53.608;10.004;2024-03-25T01:58:08;6.60;99.90
1578;DHT22;57623;53.608;10.004;2024-03-25T02:00:35;6.70;99.90
1578;DHT22;57623;53.608;10.004;2024-03-25T02:03:03;6.70;99.90
1578;DHT22;57623;53.608;10.004;2024-03-25T02:05:29;6.70;99.90
1578;DHT22;57623;53.608;10.004;2024-03-25T02:07:57;6.70;99.90
1578;DHT22;57623;53.608;10.004;2024-03-25T02:10:25;6.60;99.90
1578;DHT22;57623;53.608;10.004;2024-03-25T02:12:52;6.70;99.90
1578;DHT22;57623;53.608;10.004;2024-03-25T02:15:18;6.70;99.90
1578;DHT22;57623;53.608;10.004;2024-03-25T02:17:46;6.70;99.90
1578;DHT22;57623;53.608;10.004;2024-03-25T02:20:12;6.70;99.90
1578;DHT22;57623;53.608;10.004;2024-03-25T02:22:41;6.70;99.90
1578;DHT22;57623;53.608;10.004;2024-03-25T02:25:09;6.60;99.90
1578;DHT22;57623;53.608;10.004;2024-03-25T02:27:38;6.60;99.90
1578;DHT22;57623;53.608;10.004;2024-03-25T02:30:05;6.60;99.90
1578;DHT22;57623;53.608;10.004;2024-03-25T02:32:33;6.60;99.90
1578;DHT22;57623;53.608;10.004;2024-03-25T02:34:59;6.50;99.90
1578;DHT22;57623;53.608;10.004;2024-03-25T02:37:27;6.50;99.90
1578;DHT22;57623;53.608;10.004;2024-03-25T02:39:57;6.50;99.90
1578;DHT22;57623;53.608;10.004;2024-03-25T02:42:25;6.40;99.90
1578;DHT22;57623;53.608;10.004;2024-03-25T02:44:53;6.40;99.90
1578;DHT22;57623;53.608;10.004;2024-03-25T02:47:20;6.40;99.90
1578;DHT22;57623;53.608;10.004;2024-03-25T02:49:47;6.40;99.90
1578;DHT22;57623;53.608;10.004;2024-03-25T02:52:14;6.30;99.90
1578;DHT22;57623;53.608;10.004;2024-03-25T02:54:40;6.30;99.90
1578;DHT22;57623;53.608;10.004;2024-03-25T02:57:07;6.30;99.90
1578;DHT22;57623;53.608;10.004;2024-03-25T02:59:33;6.30;99.90
1578;DHT22;57623;53.608;10.004;2024-03-25T03:02:02;6.30;99.90
1578;DHT22;57623;53.608;10.004;2024-03-25T03:04:28;6.30;99.90
1578;DHT22;57623;53.608;10.004;2024-03-25T03:06:56;6.30;99.90
1578;DHT22;57623;53.608;10.004;2024-03-25T03:09:22;6.30;99.90
1578;DHT22;57623;53.608;10.004;2024-03-25T03:11:49;6.30;99.90
1578;DHT22;57623;53.608;10.004;2024-03-25T03:14:15;6.30;99.90
1578;DHT22;57623;53.608;10.004;2024-03-25T03:16:42;6.30;99.90
1578;DHT22;57623;53.608;10.004;2024-03-25T03:19:10;6.40;99.90
1578;DHT22;57623;53.608;10.004;2024-03-25T03:21:37;6.30;99.90
1578;DHT22;57623;53.608;10.004;2024-03-25T03:24:03;6.30;99.90
1578;DHT22;57623;53.608;10.004;2024-03-25T03:26:30;6.30;99.90
1578;DHT22;57623;53.608;10.004;2024-03-25T03:28:56;6.30;99.90
1578;DHT22;57623;53.608;10.004;2024-03-25T03:31:26;6.30;99.90
1578;DHT22;57623;53.608;10.004;2024-03-25T03:33:53;6.30;99.90
1578;DHT22;57623;53.608;10.004;2024-03-25T03:36:22;6.30;99.90
1578;DHT22;57623;53.608;10.004;2024-03-25T03:38:50;6.30;99.90
1578;DHT22;57623;53.608;10.004;2024-03-25T03:41:16;6.30;99.90
1578;DHT22;57623;53.608;10.004;2024-03-25T03:43:44;6.30;99.90
1578;DHT22;57623;53.608;10.004;2024-03-25T03:46:10;6.30;99.90
1578;DHT22;57623;53.608;10.004;2024-03-25T03:48:37;6.30;99.90
1578;DHT22;57623;53.608;10.004;2024-03-25T03:51:04;6.30;99.90
1578;DHT22;57623;53.608;10.004;2024-03-25T03:53:33;6.30;99.90
1578;DHT22;57623;53.608;10.004;2024-03-25T03:56:01;6.30;99.90
1578;DHT22;57623;53.608;10.004;2024-03-25T03:58:28;6.30;99.90
1578;DHT22;57623;53.608;10.004;2024-03-25T04:00:54;6.30;99.90
1578;DHT22;57623;53.608;10.004;2024-03-25T04:03:22;6.30;99.90
1578;DHT22;57623;53.608;10.004;2024-03-25T04:05:48;6.30;99.90
1578;DHT22;57623;53.608;10.004;2024-03-25T04:08:15;6.20;99.90
1578;DHT22;57623;53.608;10.004;2024-03-25T04:10:44;6.20;99.90
1578;DHT22;57623;53.608;10.004;2024-03-25T04:13:12;6.20;99.90
1578;DHT22;57623;53.608;10.004;2024-03-25T04:15:39;6.20;99.90
1578;DHT22;57623;53.608;10.004;2024-03-25T04:18:06;6.20;99.90
1578;DHT22;57623;53.608;10.004;2024-03-25T04:20:36;6.20;99.90
1578;DHT22;57623;53.608;10.004;2024-03-25T04:23:03;6.20;99.90
1578;DHT22;57623;53.608;10.004;2024-03-25T04:25:30;6.20;99.90
1578;DHT22;57623;53.608;10.004;2024-03-25T04:28:00;6.20;99.90
1578;DHT22;57623;53.608;10.004;2024-03-25T04:30:26;6.20;99.90
1578;DHT22;57623;53.608;10.004;2024-03-25T04:32:53;6.20;99.90
1578;DHT22;57623;53.608;10.004;2024-03-25T04:35:19;6.20;99.90
1578;DHT22;57623;53.608;10.004;2024-03-25T04:37:47;6.20;99.90
1578;DHT22;57623;53.608;10.004;2024-03-25T04:40:13;6.20;99.90
1578;DHT22;57623;53.608;10.004;2024-03-25T04:42:40;6.20;99.90
1578;DHT22;57623;53.608;10.004;2024-03-25T04:45:08;6.20;99.90
1578;DHT22;57623;53.608;10.004;2024-03-25T04:47:34;6.20;99.90
1578;DHT22;57623;53.608;10.004;2024-03-25T04:50:00;6.20;99.90
1578;DHT22;57623;53.608;10.004;2024-03-25T04:52:26;6.20;99.90
1578;DHT22;57623;53.608;10.004;2024-03-25T04:54:52;6.20;99.90
1578;DHT22;57623;53.608;10.004;2024-03-25T04:57:18;6.20;99.90
1578;DHT22;57623;53.608;10.004;2024-03-25T04:59:44;6.20;99.90
1578;DHT22;57623;53.608;10.004;2024-03-25T05:02:12;6.20;99.90
1578;DHT22;57623;53.608;10.004;2024-03-25T05:04:38;6.20;99.90
1578;DHT22;57623;53.608;10.004;2024-03-25T05:07:05;6.20;99.90
1578;DHT22;57623;53.608;10.004;2024-03-25T05:09:31;6.20;99.90
1578;DHT22;57623;53.608;10.004;2024-03-25T05:11:58;6.20;99.90
1578;DHT22;57623;53.608;10.004;2024-03-25T05:14:24;6.20;99.90
1578;DHT22;57623;53.608;10.004;2024-03-25T05:16:50;6.10;99.90
1578;DHT22;57623;53.608;10.004;2024-03-25T05:19:18;6.20;99.90
1578;DHT22;57623;53.608;10.004;2024-03-25T05:21:44;6.20;99.90
1578;DHT22;57623;53.608;10.004;2024-03-25T05:24:10;6.10;99.90
1578;DHT22;57623;53.608;10.004;2024-03-25T05:26:36;6.10;99.90
1578;DHT22;57623;53.608;10.004;2024-03-25T05:29:03;6.10;99.90
1578;DHT22;57623;53.608;10.004;2024-03-25T05:31:29;6.10;99.90
1578;DHT22;57623;53.608;10.004;2024-03-25T05:33:55;6.10;99.90
1578;DHT22;57623;53.608;10.004;2024-03-25T05:36:22;6.00;99.90
1578;DHT22;57623;53.608;10.004;2024-03-25T05:38:48;6.00;99.90
1578;DHT22;57623;53.608;10.004;2024-03-25T05:41:15;6.00;99.90
1578;DHT22;57623;53.608;10.004;2024-03-25T05:43:41;6.00;99.90
1578;DHT22;57623;53.608;10.004;2024-03-25T05:46:07;6.00;99.90
1578;DHT22;57623;53.608;10.004;2024-03-25T05:48:33;6.00;99.90
1578;DHT22;57623;53.608;10.004;2024-03-25T05:51:00;6.00;99.90
1578;DHT22;57623;53.608;10.004;2024-03-25T05:53:28;6.00;99.90
1578;DHT22;57623;53.608;10.004;2024-03-25T05:55:54;6.00;99.90
1578;DHT22;57623;53.608;10.004;2024-03-25T05:58:21;6.00;99.90
1578;DHT22;57623;53.608;10.004;2024-03-25T06:00:47;6.00;99.90
1578;DHT22;57623;53.608;10.004;2024-03-25T06:03:14;6.00;99.90
1578;DHT22;57623;53.608;10.004;2024-03-25T06:05:40;6.00;99.90
1578;DHT22;57623;53.608;10.004;2024-03-25T06:08:07;6.00;99.90
1578;DHT22;57623;53.608;10.004;2024-03-25T06:10:38;6.10;99.90
1578;DHT22;57623;53.608;10.004;2024-03-25T06:13:04;6.10;99.90
1578;DHT22;57623;53.608;10.004;2024-03-25T06:15:30;6.10;99.90
1578;DHT22;57623;53.608;10.004;2024-03-25T06:17:56;6.10;99.90
1578;DHT22;57623;53.608;10.004;2024-03-25T06:20:23;6.10;99.90
1578;DHT22;57623;53.608;10.004;2024-03-25T06:22:49;6.10;99.90
1578;DHT22;57623;53.608;10.004;2024-03-25T06:25:15;6.20;99.90
1578;DHT22;57623;53.608;10.004;2024-03-25T06:27:43;6.20;99.90
1578;DHT22;57623;53.608;10.004;2024-03-25T06:30:10;6.20;99.90
1578;DHT22;57623;53.608;10.004;2024-03-25T06:32:55;6.20;99.90
1578;DHT22;57623;53.608;10.004;2024-03-25T06:35:39;6.20;99.90
1578;DHT22;57623;53.608;10.004;2024-03-25T06:38:05;6.20;99.90
1578;DHT22;57623;53.608;10.004;2024-03-25T06:40:31;6.20;99.90
1578;DHT22;57623;53.608;10.004;2024-03-25T06:42:59;6.20;99.90
1578;DHT22;57623;53.608;10.004;2024-03-25T06:45:25;6.20;99.90
1578;DHT22;57623;53.608;10.004;2024-03-25T06:47:51;6.20;99.90
1578;DHT22;57623;53.608;10.004;2024-03-25T06:50:17;6.30;99.90
1578;DHT22;57623;53.608;10.004;2024-03-25T06:52:43;6.30;99.90
1578;DHT22;57623;53.608;10.004;2024-03-25T06:55:09;6.30;99.90
1578;DHT22;57623;53.608;10.004;2024-03-25T06:57:35;6.30;99.90
1578;DHT22;57623;53.608;10.004;2024-03-25T07:00:04;6.30;99.90
1578;DHT22;57623;53.608;10.004;2024-03-25T07:02:30;6.30;99.90
1578;DHT22;57623;53.608;10.004;2024-03-25T07:04:56;6.40;99.90
1578;DHT22;57623;53.608;10.004;2024-03-25T07:07:22;6.40;99.90
1578;DHT22;57623;53.608;10.004;2024-03-25T07:09:48;6.40;99.90
1578;DHT22;57623;53.608;10.004;2024-03-25T07:12:14;6.40;99.90
1578;DHT22;57623;53.608;10.004;2024-03-25T07:14:40;6.40;99.90
1578;DHT22;57623;53.608;10.004;2024-03-25T07:17:08;6.40;99.90
1578;DHT22;57623;53.608;10.004;2024-03-25T07:19:34;6.40;99.90
1578;DHT22;57623;53.608;10.004;2024-03-25T07:22:00;6.40;99.90
1578;DHT22;57623;53.608;10.004;2024-03-25T07:24:26;6.50;99.90
1578;DHT22;57623;53.608;10.004;2024-03-25T07:26:52;6.50;99.90
1578;DHT22;57623;53.608;10.004;2024-03-25T07:29:18;6.50;99.90
1578;DHT22;57623;53.608;10.004;2024-03-25T07:31:45;6.50;99.90
1578;DHT22;57623;53.608;10.004;2024-03-25T07:34:12;6.60;99.90
1578;DHT22;57623;53.608;10.004;2024-03-25T07:36:38;6.60;99.90
1578;DHT22;57623;53.608;10.004;2024-03-25T07:39:04;6.60;99.90
1578;DHT22;57623;53.608;10.004;2024-03-25T07:41:31;6.60;99.90
1578;DHT22;57623;53.608;10.004;2024-03-25T07:43:57;6.60;99.90
1578;DHT22;57623;53.608;10.004;2024-03-25T07:46:23;6.60;99.90
1578;DHT22;57623;53.608;10.004;2024-03-25T07:48:49;6.70;99.90
1578;DHT22;57623;53.608;10.004;2024-03-25T07:51:17;6.70;99.90
1578;DHT22;57623;53.608;10.004;2024-03-25T07:53:43;6.70;99.90
1578;DHT22;57623;53.608;10.004;2024-03-25T07:56:09;6.70;99.90
1578;DHT22;57623;53.608;10.004;2024-03-25T07:58:35;6.70;99.90
1578;DHT22;57623;53.608;10.004;2024-03-25T08:01:02;6.80;99.90
1578;DHT22;57623;53.608;10.004;2024-03-25T08:03:28;6.80;99.90
1578;DHT22;57623;53.608;10.004;2024-03-25T08:05:54;6.80;99.90
1578;DHT22;57623;53.608;10.004;2024-03-25T08:08:21;6.80;99.90
1578;DHT22;57623;53.608;10.004;2024-03-25T08:10:47;6.90;99.90
1578;DHT22;57623;53.608;10.004;2024-03-25T08:13:13;6.90;99.90
1578;DHT22;57623;53.608;10.004;2024-03-25T08:15:40;6.90;99.90
1578;DHT22;57623;53.608;10.004;2024-03-25T08:18:07;6.80;99.90
1578;DHT22;57623;53.608;10.004;2024-03-25T08:20:33;6.80;99.90
1578;DHT22;57623;53.608;10.004;2024-03-25T08:22:59;6.80;99.90
1578;DHT22;57623;53.608;10.004;2024-03-25T08:25:26;6.80;99.90
1578;DHT22;57623;53.608;10.004;2024-03-25T08:27:53;6.80;99.90
1578;DHT22;57623;53.608;10.004;2024-03-25T08:30:19;6.70;99.90
1578;DHT22;57623;53.608;10.004;2024-03-25T08:32:45;6.80;99.90
1578;DHT22;57623;53.608;10.004;2024-03-25T08:35:11;6.80;99.90
1578;DHT22;57623;53.608;10.004;2024-03-25T08:37:37;6.90;99.90
1578;DHT22;57623;53.608;10.004;2024-03-25T08:40:04;6.90;99.90
1578;DHT22;57623;53.608;10.004;2024-03-25T08:42:32;7.00;99.90
1578;DHT22;57623;53.608;10.004;2024-03-25T08:44:58;7.10;99.90
1578;DHT22;57623;53.608;10.004;2024-03-25T08:47:24;7.20;99.90
1578;DHT22;57623;53.608;10.004;2024-03-25T08:49:51;7.30;99.90
1578;DHT22;57623;53.608;10.004;2024-03-25T08:52:17;7.30;99.90
1578;DHT22;57623;53.608;10.004;2024-03-25T08:54:43;7.40;99.90
1578;DHT22;57623;53.608;10.004;2024-03-25T08:57:09;7.30;99.90
1578;DHT22;57623;53.608;10.004;2024-03-25T08:59:36;7.40;99.90
1578;DHT22;57623;53.608;10.004;2024-03-25T09:02:03;7.40;99.90
1578;DHT22;57623;53.608;10.004;2024-03-25T09:04:29;7.30;99.90
1578;DHT22;57623;53.608;10.004;2024-03-25T09:06:55;7.40;99.90
1578;DHT22;57623;53.608;10.004;2024-03-25T09:09:21;7.40;99.90
1578;DHT22;57623;53.608;10.004;2024-03-25T09:12:06;7.40;99.90
1578;DHT22;57623;53.608;10.004;2024-03-25T09:14:32;7.50;99.90
1578;DHT22;57623;53.608;10.004;2024-03-25T09:17:00;7.50;99.90
1578;DHT22;57623;53.608;10.004;2024-03-25T09:19:26;7.60;99.90
1578;DHT22;57623;53.608;10.004;2024-03-25T09:21:52;7.70;99.90
1578;DHT22;57623;53.608;10.004;2024-03-25T09:24:18;7.80;99.90
1578;DHT22;57623;53.608;10.004;2024-03-25T09:26:45;7.90;99.90
1578;DHT22;57623;53.608;10.004;2024-03-25T09:29:11;8.10;99.90
1578;DHT22;57623;53.608;10.004;2024-03-25T09:31:37;8.10;99.90
1578;DHT22;57623;53.608;10.004;2024-03-25T09:34:05;8.20;99.90
1578;DHT22;57623;53.608;10.004;2024-03-25T09:36:31;8.20;99.90
1578;DHT22;57623;53.608;10.004;2024-03-25T09:38:57;8.30;99.90
1578;DHT22;57623;53.608;10.004;2024-03-25T09:41:24;8.30;99.90
1578;DHT22;57623;53.608;10.004;2024-03-25T09:43:54;8.30;99.90
1578;DHT22;57623;53.608;10.004;2024-03-25T09:46:21;8.30;99.90
1578;DHT22;57623;53.608;10.004;2024-03-25T09:48:49;8.40;99.90
1578;DHT22;57623;53.608;10.004;2024-03-25T09:51:19;8.40;99.90
1578;DHT22;57623;53.608;10.004;2024-03-25T09:53:46;8.40;99.90
1578;DHT22;57623;53.608;10.004;2024-03-25T09:56:12;8.50;99.90
1578;DHT22;57623;53.608;10.004;2024-03-25T09:58:39;8.60;99.90
1578;DHT22;57623;53.608;10.004;2024-03-25T10:01:05;8.60;99.90
1578;DHT22;57623;53.608;10.004;2024-03-25T10:03:32;8.50;99.90
1578;DHT22;57623;53.608;10.004;2024-03-25T10:05:58;8.40;99.90
1578;DHT22;57623;53.608;10.004;2024-03-25T10:08:25;8.30;99.90
1578;DHT22;57623;53.608;10.004;2024-03-25T10:10:51;8.10;99.90
1578;DHT22;57623;53.608;10.004;2024-03-25T10:13:18;8.10;99.90
1578;DHT22;57623;53.608;10.004;2024-03-25T10:15:47;8.10;99.90
1578;DHT22;57623;53.608;10.004;2024-03-25T10:18:13;8.10;99.90
1578;DHT22;57623;53.608;10.004;2024-03-25T10:20:47;8.20;99.90
1578;DHT22;57623;53.608;10.004;2024-03-25T10:23:14;8.40;99.90
1578;DHT22;57623;53.608;10.004;2024-03-25T10:25:41;8.50;99.90
1578;DHT22;57623;53.608;10.004;2024-03-25T10:28:08;8.60;99.90
1578;DHT22;57623;53.608;10.004;2024-03-25T10:30:34;8.70;99.90
1578;DHT22;57623;53.608;10.004;2024-03-25T10:33:01;8.70;99.90
1578;DHT22;57623;53.608;10.004;2024-03-25T10:35:29;8.80;99.90
1578;DHT22;57623;53.608;10.004;2024-03-25T10:37:58;8.80;99.90
1578;DHT22;57623;53.608;10.004;2024-03-25T10:40:27;8.90;99.90
1578;DHT22;57623;53.608;10.004;2024-03-25T10:42:59;9.00;99.90
1578;DHT22;57623;53.608;10.004;2024-03-25T10:45:27;9.20;99.90
1578;DHT22;57623;53.608;10.004;2024-03-25T10:47:57;9.30;99.90
1578;DHT22;57623;53.608;10.004;2024-03-25T10:50:28;9.40;99.90
1578;DHT22;57623;53.608;10.004;2024-03-25T10:52:55;9.30;99.90
1578;DHT22;57623;53.608;10.004;2024-03-25T10:55:23;9.20;99.90
1578;DHT22;57623;53.608;10.004;2024-03-25T10:57:50;9.20;99.90
1578;DHT22;57623;53.608;10.004;2024-03-25T11:00:19;9.10;99.90
1578;DHT22;57623;53.608;10.004;2024-03-25T11:02:46;9.10;99.90
1578;DHT22;57623;53.608;10.004;2024-03-25T11:05:12;9.10;99.90
1578;DHT22;57623;53.608;10.004;2024-03-25T11:07:38;9.20;99.90
1578;DHT22;57623;53.608;10.004;2024-03-25T11:10:05;9.40;99.90
1578;DHT22;57623;53.608;10.004;2024-03-25T11:12:32;9.50;99.90
1578;DHT22;57623;53.608;10.004;2024-03-25T11:15:01;9.60;99.90
1578;DHT22;57623;53.608;10.004;2024-03-25T11:17:30;9.70;99.90
1578;DHT22;57623;53.608;10.004;2024-03-25T11:20:07;9.60;99.90
1578;DHT22;57623;53.608;10.004;2024-03-25T11:22:33;9.60;99.90
1578;DHT22;57623;53.608;10.004;2024-03-25T11:25:05;9.50;99.90
1578;DHT22;57623;53.608;10.004;2024-03-25T11:27:33;9.50;99.90
1578;DHT22;57623;53.608;10.004;2024-03-25T11:30:00;9.50;99.90
1578;DHT22;57623;53.608;10.004;2024-03-25T11:32:26;9.50;99.90
1578;DHT22;57623;53.608;10.004;2024-03-25T11:34:54;9.50;99.90
1578;DHT22;57623;53.608;10.004;2024-03-25T11:37:20;9.50;99.90
1578;DHT22;57623;53.608;10.004;2024-03-25T11:39:47;9.50;99.90
1578;DHT22;57623;53.608;10.004;2024-03-25T11:42:13;9.60;99.90
1578;DHT22;57623;53.608;10.004;2024-03-25T11:44:39;9.80;99.90
1578;DHT22;57623;53.608;10.004;2024-03-25T11:47:07;10.00;99.90
1578;DHT22;57623;53.608;10.004;2024-03-25T11:49:39;10.10;99.90
1578;DHT22;57623;53.608;10.004;2024-03-25T11:52:07;10.20;99.90
1578;DHT22;57623;53.608;10.004;2024-03-25T11:54:34;10.30;99.90
1578;DHT22;57623;53.608;10.004;2024-03-25T11:57:00;10.40;99.90
1578;DHT22;57623;53.608;10.004;2024-03-25T11:59:26;10.40;99.90
1578;DHT22;57623;53.608;10.004;2024-03-25T12:01:52;10.30;99.90
1578;DHT22;57623;53.608;10.004;2024-03-25T12:04:19;10.30;99.90
1578;DHT22;57623;53.608;10.004;2024-03-25T12:06:45;10.40;99.90
1578;DHT22;57623;53.608;10.004;2024-03-25T12:09:13;10.40;99.90
1578;DHT22;57623;53.608;10.004;2024-03-25T12:11:58;10.50;99.90
1578;DHT22;57623;53.608;10.004;2024-03-25T12:14:25;10.90;99.90
1578;DHT22;57623;53.608;10.004;2024-03-25T12:16:52;11.10;99.90
1578;DHT22;57623;53.608;10.004;2024-03-25T12:19:19;11.20;99.90
1578;DHT22;57623;53.608;10.004;2024-03-25T12:21:45;11.30;99.90
1578;DHT22;57623;53.608;10.004;2024-03-25T12:24:14;11.40;99.90
1578;DHT22;57623;53.608;10.004;2024-03-25T12:26:40;11.20;99.90
1578;DHT22;57623;53.608;10.004;2024-03-25T12:29:06;11.10;99.90
1578;DHT22;57623;53.608;10.004;2024-03-25T12:31:33;10.90;99.90
1578;DHT22;57623;53.608;10.004;2024-03-25T12:33:59;10.80;99.90
1578;DHT22;57623;53.608;10.004;2024-03-25T12:36:25;10.90;99.90
1578;DHT22;57623;53.608;10.004;2024-03-25T12:38:57;11.00;99.90
1578;DHT22;57623;53.608;10.004;2024-03-25T12:41:25;11.30;99.90
1578;DHT22;57623;53.608;10.004;2024-03-25T12:43:51;11.70;99.90
1578;DHT22;57623;53.608;10.004;2024-03-25T12:46:17;12.00;99.90
1578;DHT22;57623;53.608;10.004;2024-03-25T12:48:47;12.30;99.90
1578;DHT22;57623;53.608;10.004;2024-03-25T12:51:14;12.60;99.90
1578;DHT22;57623;53.608;10.004;2024-03-25T12:53:41;13.00;99.90
1578;DHT22;57623;53.608;10.004;2024-03-25T12:56:07;13.50;99.90
1578;DHT22;57623;53.608;10.004;2024-03-25T12:58:35;13.70;99.90
1578;DHT22;57623;53.608;10.004;2024-03-25T13:01:01;13.90;99.90
1578;DHT22;57623;53.608;10.004;2024-03-25T13:03:27;13.80;99.90
1578;DHT22;57623;53.608;10.004;2024-03-25T13:05:54;13.50;99.90
1578;DHT22;57623;53.608;10.004;2024-03-25T13:08:20;13.20;99.90
1578;DHT22;57623;53.608;10.004;2024-03-25T13:10:46;12.90;99.90
1578;DHT22;57623;53.608;10.004;2024-03-25T13:13:12;12.50;99.90
1578;DHT22;57623;53.608;10.004;2024-03-25T13:15:40;12.30;99.90
1578;DHT22;57623;53.608;10.004;2024-03-25T13:18:06;12.70;99.90
1578;DHT22;57623;53.608;10.004;2024-03-25T13:20:32;13.50;99.90
1578;DHT22;57623;53.608;10.004;2024-03-25T13:22:58;14.20;99.90
1578;DHT22;57623;53.608;10.004;2024-03-25T13:25:25;14.40;99.90
1578;DHT22;57623;53.608;10.004;2024-03-25T13:27:51;14.70;99.90
1578;DHT22;57623;53.608;10.004;2024-03-25T13:30:17;14.30;99.90
1578;DHT22;57623;53.608;10.004;2024-03-25T13:32:44;13.80;99.90
1578;DHT22;57623;53.608;10.004;2024-03-25T13:35:11;13.30;99.90
1578;DHT22;57623;53.608;10.004;2024-03-25T13:37:37;12.80;99.90
1578;DHT22;57623;53.608;10.004;2024-03-25T13:40:03;12.40;99.90
1578;DHT22;57623;53.608;10.004;2024-03-25T13:42:30;12.30;99.90
1578;DHT22;57623;53.608;10.004;2024-03-25T13:44:56;13.00;99.90
1578;DHT22;57623;53.608;10.004;2024-03-25T13:47:22;14.80;99.90
1578;DHT22;57623;53.608;10.004;2024-03-25T13:49:50;16.40;99.90
1578;DHT22;57623;53.608;10.004;2024-03-25T13:52:25;17.40;91.60
1578;DHT22;57623;53.608;10.004;2024-03-25T13:54:51;17.70;74.20
1578;DHT22;57623;53.608;10.004;2024-03-25T13:57:18;17.30;70.90
1578;DHT22;57623;53.608;10.004;2024-03-25T13:59:44;16.60;74.80
1578;DHT22;57623;53.608;10.004;2024-03-25T14:02:10;15.80;88.10
1578;DHT22;57623;53.608;10.004;2024-03-25T14:04:36;15.00;96.90
1578;DHT22;57623;53.608;10.004;2024-03-25T14:07:04;14.40;98.00
1578;DHT22;57623;53.608;10.004;2024-03-25T14:09:30;14.00;99.90
1578;DHT22;57623;53.608;10.004;2024-03-25T14:11:56;13.60;99.90
1578;DHT22;57623;53.608;10.004;2024-03-25T14:14:22;13.40;99.90
1578;DHT22;57623;53.608;10.004;2024-03-25T14:16:48;13.10;99.90
1578;DHT22;57623;53.608;10.004;2024-03-25T14:19:15;12.90;99.90
1578;DHT22;57623;53.608;10.004;2024-03-25T14:21:41;12.90;99.90
1578;DHT22;57623;53.608;10.004;2024-03-25T14:24:08;12.90;99.90
1578;DHT22;57623;53.608;10.004;2024-03-25T14:26:35;12.90;99.90
1578;DHT22;57623;53.608;10.004;2024-03-25T14:29:01;12.90;99.90
1578;DHT22;57623;53.608;10.004;2024-03-25T14:31:27;12.90;99.90
1578;DHT22;57623;53.608;10.004;2024-03-25T14:33:54;12.80;99.90
1578;DHT22;57623;53.608;10.004;2024-03-25T14:36:20;12.70;99.90
1578;DHT22;57623;53.608;10.004;2024-03-25T14:38:46;12.70;99.90
1578;DHT22;57623;53.608;10.004;2024-03-25T14:41:18;12.70;99.90
1578;DHT22;57623;53.608;10.004;2024-03-25T14:43:44;12.60;99.90
1578;DHT22;57623;53.608;10.004;2024-03-25T14:46:10;12.60;99.90
1578;DHT22;57623;53.608;10.004;2024-03-25T14:48:36;12.60;99.90
1578;DHT22;57623;53.608;10.004;2024-03-25T14:51:03;12.70;99.90
1578;DHT22;57623;53.608;10.004;2024-03-25T14:53:29;12.70;99.90
1578;DHT22;57623;53.608;10.004;2024-03-25T14:55:55;12.90;99.90
1578;DHT22;57623;53.608;10.004;2024-03-25T14:58:23;13.10;99.90
1578;DHT22;57623;53.608;10.004;2024-03-25T15:00:49;13.40;99.90
1578;DHT22;57623;53.608;10.004;2024-03-25T15:03:15;13.60;99.90
1578;DHT22;57623;53.608;10.004;2024-03-25T15:05:41;14.00;99.90
1578;DHT22;57623;53.608;10.004;2024-03-25T15:08:07;14.20;99.90
1578;DHT22;57623;53.608;10.004;2024-03-25T15:10:34;14.40;97.60
1578;DHT22;57623;53.608;10.004;2024-03-25T15:13:00;14.40;95.40
1578;DHT22;57623;53.608;10.004;2024-03-25T15:15:27;14.40;92.30
1578;DHT22;57623;53.608;10.004;2024-03-25T15:17:54;14.10;93.50
1578;DHT22;57623;53.608;10.004;2024-03-25T15:20:20;13.70;92.20
1578;DHT22;57623;53.608;10.004;2024-03-25T15:22:46;13.50;93.50
1578;DHT22;57623;53.608;10.004;2024-03-25T15:25:12;13.30;99.90
1578;DHT22;57623;53.608;10.004;2024-03-25T15:27:38;13.00;99.90
1578;DHT22;57623;53.608;10.004;2024-03-25T15:30:06;12.90;99.90
1578;DHT22;57623;53.608;10.004;2024-03-25T15:32:33;12.80;99.90
1578;DHT22;57623;53.608;10.004;2024-03-25T15:34:59;12.70;99.90
1578;DHT22;57623;53.608;10.004;2024-03-25T15:37:25;12.70;96.40
1578;DHT22;57623;53.608;10.004;2024-03-25T15:39:52;12.80;93.30